BAW24VG EGNT-LIRQ
Flight info
| Callsign | BAW24VG |
|---|---|
| Flight time | 2h 6m |
| Altitude | 35000 |
| Route | GIRLI DCT ERKIT L602 OTR L90 DOLAS L603 BUKUT DCT LAMSO DCT REMBA M624 RITAX UT27 ROUSY DCT DEVDI DCT ODINA DCT LOMED |
| Aircraft | A21N/M-SDE3FGHIRWY/LB1 |
Departure
| Time | 2026-04-27 10:35 |
|---|---|
| Airport | Newcastle International Airport (EGNT) |
Arrival
| Time | 2026-04-27 12:41 |
|---|---|
| Airport | Florence Airport, Peretola (LIRQ) |
| Time | Latitude | Longitude | Altitude | Speed | Heading |
|---|---|---|---|---|---|
| 2026-04-27 10:15 | 55.03661 | -1.70711 | 275 ft | 0 kts | 1° |
| 2026-04-27 10:29 | 55.03656 | -1.70711 | 275 ft | 2 kts | 1° |
| 2026-04-27 10:29 | 55.03641 | -1.70712 | 275 ft | 2 kts | 12° |
| 2026-04-27 10:29 | 55.03627 | -1.70721 | 275 ft | 2 kts | 28° |
| 2026-04-27 10:30 | 55.03615 | -1.70736 | 275 ft | 2 kts | 44° |
| 2026-04-27 10:30 | 55.03605 | -1.70757 | 275 ft | 2 kts | 60° |
| 2026-04-27 10:30 | 55.03599 | -1.70781 | 275 ft | 2 kts | 76° |
| 2026-04-27 10:30 | 55.03597 | -1.70805 | 275 ft | 0 kts | 90° |
| 2026-04-27 10:31 | 55.03597 | -1.70816 | 275 ft | 1 kts | 93° |
| 2026-04-27 10:31 | 55.03597 | -1.70817 | 275 ft | 0 kts | 92° |
| 2026-04-27 10:32 | 55.03597 | -1.70813 | 275 ft | 1 kts | 92° |
| 2026-04-27 10:32 | 55.03596 | -1.70733 | 275 ft | 10 kts | 91° |
| 2026-04-27 10:32 | 55.03550 | -1.70645 | 275 ft | 10 kts | 166° |
| 2026-04-27 10:33 | 55.03524 | -1.70639 | 275 ft | 0 kts | 180° |
| 2026-04-27 10:33 | 55.03522 | -1.70639 | 275 ft | 0 kts | 181° |
| 2026-04-27 10:33 | 55.03494 | -1.70645 | 275 ft | 8 kts | 186° |
| 2026-04-27 10:33 | 55.03431 | -1.70649 | 275 ft | 9 kts | 180° |
| 2026-04-27 10:34 | 55.03379 | -1.70600 | 275 ft | 9 kts | 108° |
| 2026-04-27 10:34 | 55.03396 | -1.70479 | 275 ft | 10 kts | 66° |
| 2026-04-27 10:34 | 55.03451 | -1.70267 | 274 ft | 46 kts | 64° |
| 2026-04-27 10:34 | 55.03693 | -1.69374 | 275 ft | 115 kts | 65° |
| 2026-04-27 10:35 | 55.04121 | -1.67798 | 282 ft | 169 kts | 63° |
| 2026-04-27 10:35 | 55.04567 | -1.65845 | 868 ft | 169 kts | 65° |
| 2026-04-27 10:35 | 55.04984 | -1.64020 | 1620 ft | 159 kts | 60° |
| 2026-04-27 10:35 | 55.05472 | -1.62348 | 2213 ft | 159 kts | 57° |
| 2026-04-27 10:36 | 55.06020 | -1.60567 | 2607 ft | 174 kts | 58° |
| 2026-04-27 10:36 | 55.06530 | -1.58535 | 2992 ft | 194 kts | 75° |
| 2026-04-27 10:36 | 55.06385 | -1.56081 | 3375 ft | 218 kts | 109° |
| 2026-04-27 10:36 | 55.05429 | -1.53987 | 3824 ft | 237 kts | 144° |
| 2026-04-27 10:37 | 55.03842 | -1.52701 | 4199 ft | 259 kts | 157° |
| 2026-04-27 10:37 | 55.02116 | -1.51524 | 4687 ft | 276 kts | 157° |
| 2026-04-27 10:37 | 55.00299 | -1.50274 | 5416 ft | 283 kts | 157° |
| 2026-04-27 10:37 | 54.98496 | -1.49018 | 6250 ft | 286 kts | 157° |
| 2026-04-27 10:38 | 54.96641 | -1.47716 | 7085 ft | 288 kts | 158° |
| 2026-04-27 10:38 | 54.94763 | -1.46394 | 7892 ft | 291 kts | 158° |
| 2026-04-27 10:38 | 54.92884 | -1.45069 | 8675 ft | 295 kts | 158° |
| 2026-04-27 10:38 | 54.90963 | -1.43712 | 9424 ft | 299 kts | 158° |
| 2026-04-27 10:39 | 54.89041 | -1.42357 | 10146 ft | 302 kts | 159° |
| 2026-04-27 10:39 | 54.87104 | -1.40993 | 10795 ft | 308 kts | 159° |
| 2026-04-27 10:39 | 54.85052 | -1.39553 | 11166 ft | 325 kts | 159° |
| 2026-04-27 10:39 | 54.82916 | -1.38055 | 11471 ft | 342 kts | 159° |
| 2026-04-27 10:40 | 54.80651 | -1.36420 | 11751 ft | 359 kts | 155° |
| 2026-04-27 10:40 | 54.78527 | -1.34012 | 12146 ft | 374 kts | 143° |
| 2026-04-27 10:40 | 54.76530 | -1.31154 | 12796 ft | 378 kts | 141° |
| 2026-04-27 10:40 | 54.74511 | -1.28198 | 13453 ft | 382 kts | 141° |
| 2026-04-27 10:41 | 54.72464 | -1.25255 | 14103 ft | 386 kts | 142° |
| 2026-04-27 10:41 | 54.70381 | -1.22323 | 14730 ft | 390 kts | 142° |
| 2026-04-27 10:41 | 54.68236 | -1.19350 | 15338 ft | 395 kts | 143° |
| 2026-04-27 10:41 | 54.66061 | -1.16368 | 15934 ft | 398 kts | 143° |
| 2026-04-27 10:42 | 54.63882 | -1.13399 | 16566 ft | 401 kts | 143° |
| 2026-04-27 10:42 | 54.61669 | -1.10398 | 17132 ft | 405 kts | 143° |
| 2026-04-27 10:42 | 54.59448 | -1.07394 | 17657 ft | 409 kts | 144° |
| 2026-04-27 10:42 | 54.57174 | -1.04328 | 18180 ft | 414 kts | 144° |
| 2026-04-27 10:43 | 54.54903 | -1.01270 | 18750 ft | 417 kts | 144° |
| 2026-04-27 10:43 | 54.52614 | -0.98194 | 19291 ft | 420 kts | 144° |
| 2026-04-27 10:43 | 54.50295 | -0.95082 | 19823 ft | 424 kts | 144° |
| 2026-04-27 10:43 | 54.47973 | -0.91971 | 20331 ft | 427 kts | 144° |
| 2026-04-27 10:44 | 54.45618 | -0.88823 | 20813 ft | 431 kts | 144° |
| 2026-04-27 10:44 | 54.43248 | -0.85657 | 21289 ft | 435 kts | 144° |
| 2026-04-27 10:44 | 54.40860 | -0.82471 | 21758 ft | 438 kts | 144° |
| 2026-04-27 10:44 | 54.38430 | -0.79232 | 22203 ft | 442 kts | 144° |
| 2026-04-27 10:45 | 54.36004 | -0.76007 | 22644 ft | 446 kts | 144° |
| 2026-04-27 10:45 | 54.33550 | -0.72747 | 23099 ft | 449 kts | 144° |
| 2026-04-27 10:45 | 54.31074 | -0.69465 | 23516 ft | 452 kts | 144° |
| 2026-04-27 10:45 | 54.28577 | -0.66158 | 23932 ft | 455 kts | 144° |
| 2026-04-27 10:46 | 54.26032 | -0.62793 | 24334 ft | 458 kts | 144° |
| 2026-04-27 10:46 | 54.23525 | -0.59487 | 24719 ft | 461 kts | 144° |
| 2026-04-27 10:46 | 54.20961 | -0.56108 | 25078 ft | 465 kts | 144° |
| 2026-04-27 10:46 | 54.18405 | -0.52744 | 25432 ft | 468 kts | 144° |
| 2026-04-27 10:47 | 54.15805 | -0.49330 | 25791 ft | 471 kts | 144° |
| 2026-04-27 10:47 | 54.13207 | -0.45925 | 26170 ft | 473 kts | 143° |
| 2026-04-27 10:47 | 54.10599 | -0.42510 | 26507 ft | 476 kts | 144° |
| 2026-04-27 10:47 | 54.07939 | -0.39033 | 26827 ft | 478 kts | 143° |
| 2026-04-27 10:48 | 54.05307 | -0.35598 | 27133 ft | 481 kts | 143° |
| 2026-04-27 10:48 | 54.02632 | -0.32113 | 27437 ft | 484 kts | 144° |
| 2026-04-27 10:48 | 53.99942 | -0.28609 | 27739 ft | 486 kts | 144° |
| 2026-04-27 10:48 | 53.97267 | -0.25138 | 28060 ft | 488 kts | 144° |
| 2026-04-27 10:49 | 53.94569 | -0.21642 | 28348 ft | 490 kts | 144° |
| 2026-04-27 10:49 | 53.91831 | -0.18100 | 28663 ft | 491 kts | 144° |
| 2026-04-27 10:49 | 53.89109 | -0.14584 | 29063 ft | 490 kts | 144° |
| 2026-04-27 10:49 | 53.86398 | -0.11087 | 29457 ft | 489 kts | 144° |
| 2026-04-27 10:50 | 53.83796 | -0.07359 | 29807 ft | 490 kts | 133° |
| 2026-04-27 10:50 | 53.81836 | -0.02662 | 30134 ft | 489 kts | 120° |
| 2026-04-27 10:50 | 53.80195 | 0.02354 | 30532 ft | 487 kts | 117° |
| 2026-04-27 10:50 | 53.78628 | 0.07350 | 30866 ft | 487 kts | 117° |
| 2026-04-27 10:51 | 53.77011 | 0.12430 | 31164 ft | 486 kts | 117° |
| 2026-04-27 10:51 | 53.75387 | 0.17407 | 31462 ft | 485 kts | 118° |
| 2026-04-27 10:51 | 53.73724 | 0.22388 | 31746 ft | 485 kts | 119° |
| 2026-04-27 10:51 | 53.72064 | 0.27292 | 32032 ft | 484 kts | 119° |
| 2026-04-27 10:52 | 53.70383 | 0.32204 | 32314 ft | 483 kts | 119° |
| 2026-04-27 10:52 | 53.68705 | 0.37081 | 32578 ft | 482 kts | 119° |
| 2026-04-27 10:52 | 53.67017 | 0.41973 | 32825 ft | 481 kts | 120° |
| 2026-04-27 10:52 | 53.65340 | 0.46820 | 33073 ft | 480 kts | 120° |
| 2026-04-27 10:53 | 53.63649 | 0.51692 | 33310 ft | 480 kts | 120° |
| 2026-04-27 10:53 | 53.60254 | 0.61395 | 33734 ft | 479 kts | 122° |
| 2026-04-27 10:53 | 53.58221 | 0.65815 | 33899 ft | 479 kts | 135° |
| 2026-04-27 10:54 | 53.55873 | 0.69714 | 34102 ft | 477 kts | 138° |
| 2026-04-27 10:54 | 53.53430 | 0.73536 | 34255 ft | 477 kts | 139° |
| 2026-04-27 10:54 | 53.50997 | 0.77316 | 34405 ft | 478 kts | 139° |
| 2026-04-27 10:54 | 53.48533 | 0.81158 | 34534 ft | 479 kts | 139° |
| 2026-04-27 10:55 | 53.46117 | 0.84947 | 34730 ft | 479 kts | 139° |
| 2026-04-27 10:55 | 53.43675 | 0.88792 | 34894 ft | 479 kts | 138° |
| 2026-04-27 10:55 | 53.41273 | 0.92579 | 35046 ft | 479 kts | 138° |
| 2026-04-27 10:55 | 53.38834 | 0.96427 | 35185 ft | 479 kts | 138° |
| 2026-04-27 10:56 | 53.36417 | 1.00238 | 35154 ft | 480 kts | 138° |
| 2026-04-27 10:56 | 53.33987 | 1.04063 | 35285 ft | 479 kts | 138° |
| 2026-04-27 10:56 | 53.31576 | 1.07854 | 35283 ft | 479 kts | 138° |
| 2026-04-27 10:57 | 53.26747 | 1.15428 | 35234 ft | 479 kts | 138° |
| 2026-04-27 10:57 | 53.21906 | 1.23003 | 35276 ft | 479 kts | 138° |
| 2026-04-27 10:58 | 53.17037 | 1.30594 | 35331 ft | 478 kts | 139° |
| 2026-04-27 10:58 | 53.12214 | 1.38089 | 35310 ft | 477 kts | 138° |
| 2026-04-27 10:59 | 53.07324 | 1.45660 | 35314 ft | 477 kts | 139° |
| 2026-04-27 10:59 | 53.02498 | 1.53113 | 35317 ft | 476 kts | 139° |
| 2026-04-27 11:00 | 52.95206 | 1.64325 | 35286 ft | 475 kts | 139° |
| 2026-04-27 11:00 | 52.90375 | 1.71724 | 35284 ft | 474 kts | 140° |
| 2026-04-27 11:01 | 52.85523 | 1.79131 | 35297 ft | 474 kts | 140° |
| 2026-04-27 11:01 | 52.80644 | 1.86555 | 35294 ft | 473 kts | 140° |
| 2026-04-27 11:02 | 52.75795 | 1.93910 | 35299 ft | 472 kts | 140° |
| 2026-04-27 11:02 | 52.70925 | 2.01272 | 35296 ft | 473 kts | 140° |
| 2026-04-27 11:03 | 52.66054 | 2.08617 | 35294 ft | 473 kts | 140° |
| 2026-04-27 11:03 | 52.61184 | 2.15936 | 35293 ft | 473 kts | 140° |
| 2026-04-27 11:04 | 52.56314 | 2.23231 | 35294 ft | 473 kts | 140° |
| 2026-04-27 11:04 | 52.51418 | 2.30539 | 35293 ft | 472 kts | 140° |
| 2026-04-27 11:05 | 52.46572 | 2.37752 | 35291 ft | 472 kts | 140° |
| 2026-04-27 11:05 | 52.41680 | 2.45008 | 35287 ft | 472 kts | 140° |
| 2026-04-27 11:06 | 52.36836 | 2.52175 | 35290 ft | 472 kts | 141° |
| 2026-04-27 11:06 | 52.31988 | 2.59326 | 35287 ft | 472 kts | 141° |
| 2026-04-27 11:07 | 52.27076 | 2.66547 | 35289 ft | 472 kts | 142° |
| 2026-04-27 11:07 | 52.22190 | 2.73708 | 35290 ft | 472 kts | 142° |
| 2026-04-27 11:08 | 52.17279 | 2.80882 | 35290 ft | 472 kts | 142° |
| 2026-04-27 11:08 | 52.12363 | 2.88041 | 35275 ft | 472 kts | 142° |
| 2026-04-27 11:09 | 52.07466 | 2.95153 | 35275 ft | 472 kts | 142° |
| 2026-04-27 11:09 | 52.02565 | 3.02245 | 35276 ft | 471 kts | 142° |
| 2026-04-27 11:10 | 51.97653 | 3.09336 | 35284 ft | 470 kts | 142° |
| 2026-04-27 11:10 | 51.92731 | 3.16418 | 35287 ft | 470 kts | 142° |
| 2026-04-27 11:11 | 51.87839 | 3.23435 | 35287 ft | 470 kts | 142° |
| 2026-04-27 11:11 | 51.82905 | 3.30491 | 35282 ft | 470 kts | 142° |
| 2026-04-27 11:12 | 51.78002 | 3.37481 | 35277 ft | 470 kts | 142° |
| 2026-04-27 11:12 | 51.73088 | 3.44464 | 35276 ft | 470 kts | 142° |
| 2026-04-27 11:13 | 51.68165 | 3.51438 | 35271 ft | 470 kts | 142° |
| 2026-04-27 11:13 | 51.63247 | 3.58387 | 35271 ft | 470 kts | 142° |
| 2026-04-27 11:14 | 51.58302 | 3.65353 | 35266 ft | 470 kts | 143° |
| 2026-04-27 11:14 | 51.53371 | 3.72278 | 35271 ft | 470 kts | 143° |
| 2026-04-27 11:15 | 51.48456 | 3.79162 | 35267 ft | 470 kts | 143° |
| 2026-04-27 11:15 | 51.43513 | 3.86063 | 35268 ft | 470 kts | 143° |
| 2026-04-27 11:16 | 51.38556 | 3.92962 | 35258 ft | 470 kts | 143° |
| 2026-04-27 11:16 | 51.33599 | 3.99842 | 35262 ft | 471 kts | 143° |
| 2026-04-27 11:17 | 51.28617 | 4.06735 | 35264 ft | 471 kts | 143° |
| 2026-04-27 11:17 | 51.23650 | 4.13586 | 35261 ft | 471 kts | 143° |
| 2026-04-27 11:18 | 51.18671 | 4.20435 | 35266 ft | 472 kts | 143° |
| 2026-04-27 11:18 | 51.13685 | 4.27272 | 35265 ft | 471 kts | 143° |
| 2026-04-27 11:19 | 51.08707 | 4.34079 | 35265 ft | 471 kts | 143° |
| 2026-04-27 11:19 | 51.03696 | 4.40909 | 35269 ft | 472 kts | 143° |
| 2026-04-27 11:20 | 50.98710 | 4.47690 | 35263 ft | 472 kts | 143° |
| 2026-04-27 11:20 | 50.93692 | 4.54490 | 35258 ft | 471 kts | 143° |
| 2026-04-27 11:21 | 50.88649 | 4.61308 | 35253 ft | 472 kts | 143° |
| 2026-04-27 11:21 | 50.83652 | 4.68045 | 35248 ft | 472 kts | 144° |
| 2026-04-27 11:22 | 50.78611 | 4.74819 | 35244 ft | 472 kts | 144° |
| 2026-04-27 11:22 | 50.73577 | 4.81566 | 35239 ft | 473 kts | 144° |
| 2026-04-27 11:23 | 50.68570 | 4.88255 | 35237 ft | 472 kts | 144° |
| 2026-04-27 11:23 | 50.63726 | 4.95222 | 35223 ft | 475 kts | 140° |
| 2026-04-27 11:24 | 50.59048 | 5.02473 | 35216 ft | 475 kts | 139° |
| 2026-04-27 11:24 | 50.54339 | 5.09763 | 35215 ft | 474 kts | 139° |
| 2026-04-27 11:25 | 50.49597 | 5.17079 | 35216 ft | 475 kts | 139° |
| 2026-04-27 11:25 | 50.44861 | 5.24363 | 35210 ft | 475 kts | 139° |
| 2026-04-27 11:26 | 50.40105 | 5.31654 | 35209 ft | 475 kts | 139° |
| 2026-04-27 11:26 | 50.35387 | 5.38867 | 35203 ft | 475 kts | 139° |
| 2026-04-27 11:27 | 50.30597 | 5.46167 | 35206 ft | 475 kts | 139° |
| 2026-04-27 11:27 | 50.25853 | 5.53378 | 35194 ft | 476 kts | 139° |
| 2026-04-27 11:28 | 50.21073 | 5.60627 | 35192 ft | 476 kts | 139° |
| 2026-04-27 11:28 | 50.16304 | 5.67833 | 35191 ft | 476 kts | 140° |
| 2026-04-27 11:29 | 50.11422 | 5.74721 | 35185 ft | 472 kts | 147° |
| 2026-04-27 11:29 | 50.05988 | 5.80376 | 35184 ft | 465 kts | 156° |
| 2026-04-27 11:30 | 50.00156 | 5.84575 | 35186 ft | 460 kts | 165° |
| 2026-04-27 11:30 | 49.94042 | 5.87760 | 35189 ft | 459 kts | 167° |
| 2026-04-27 11:31 | 49.87952 | 5.90872 | 35191 ft | 460 kts | 167° |
| 2026-04-27 11:31 | 49.81883 | 5.93987 | 35194 ft | 460 kts | 167° |
| 2026-04-27 11:32 | 49.75765 | 5.97127 | 35196 ft | 460 kts | 167° |
| 2026-04-27 11:32 | 49.69695 | 6.00238 | 35198 ft | 459 kts | 167° |
| 2026-04-27 11:33 | 49.63601 | 6.03350 | 35204 ft | 460 kts | 167° |
| 2026-04-27 11:33 | 49.57495 | 6.06466 | 35204 ft | 460 kts | 167° |
| 2026-04-27 11:34 | 49.51387 | 6.09591 | 35203 ft | 462 kts | 165° |
| 2026-04-27 11:34 | 49.45425 | 6.13433 | 35202 ft | 467 kts | 158° |
| 2026-04-27 11:35 | 49.39664 | 6.18238 | 35198 ft | 469 kts | 155° |
| 2026-04-27 11:35 | 49.33956 | 6.23129 | 35197 ft | 469 kts | 155° |
| 2026-04-27 11:36 | 49.28257 | 6.27990 | 35193 ft | 468 kts | 155° |
| 2026-04-27 11:36 | 49.22539 | 6.32849 | 35191 ft | 468 kts | 155° |
| 2026-04-27 11:37 | 49.16840 | 6.37675 | 35193 ft | 469 kts | 155° |
| 2026-04-27 11:37 | 49.11096 | 6.42526 | 35192 ft | 469 kts | 155° |
| 2026-04-27 11:38 | 49.05359 | 6.47358 | 35192 ft | 469 kts | 155° |
| 2026-04-27 11:38 | 48.99652 | 6.52154 | 35190 ft | 469 kts | 155° |
| 2026-04-27 11:39 | 48.93888 | 6.56983 | 35181 ft | 470 kts | 154° |
| 2026-04-27 11:39 | 48.88137 | 6.61791 | 35174 ft | 470 kts | 154° |
| 2026-04-27 11:40 | 48.82397 | 6.66576 | 35165 ft | 470 kts | 155° |
| 2026-04-27 11:40 | 48.76639 | 6.71363 | 35151 ft | 470 kts | 155° |
| 2026-04-27 11:41 | 48.70886 | 6.76133 | 35142 ft | 470 kts | 155° |
| 2026-04-27 11:41 | 48.65133 | 6.80890 | 35147 ft | 470 kts | 155° |
| 2026-04-27 11:42 | 48.59370 | 6.85641 | 35145 ft | 471 kts | 155° |
| 2026-04-27 11:42 | 48.53639 | 6.90356 | 35145 ft | 471 kts | 154° |
| 2026-04-27 11:43 | 48.47870 | 6.95093 | 35150 ft | 471 kts | 155° |
| 2026-04-27 11:43 | 48.42102 | 6.99814 | 35149 ft | 470 kts | 155° |
| 2026-04-27 11:44 | 48.36315 | 7.04538 | 35153 ft | 471 kts | 155° |
| 2026-04-27 11:44 | 48.30524 | 7.09253 | 35148 ft | 470 kts | 154° |
| 2026-04-27 11:45 | 48.25705 | 7.13164 | 35152 ft | 471 kts | 154° |
| 2026-04-27 11:45 | 48.18956 | 7.18631 | 35151 ft | 471 kts | 154° |
| 2026-04-27 11:46 | 48.13174 | 7.23307 | 35159 ft | 470 kts | 154° |
| 2026-04-27 11:46 | 48.07412 | 7.27950 | 35156 ft | 470 kts | 154° |
| 2026-04-27 11:47 | 48.01624 | 7.32602 | 35153 ft | 470 kts | 154° |
| 2026-04-27 11:47 | 47.95851 | 7.37231 | 35149 ft | 469 kts | 154° |
| 2026-04-27 11:48 | 47.90084 | 7.41846 | 35144 ft | 470 kts | 154° |
| 2026-04-27 11:48 | 47.84269 | 7.46487 | 35137 ft | 471 kts | 154° |
| 2026-04-27 11:49 | 47.78466 | 7.51108 | 35136 ft | 471 kts | 154° |
| 2026-04-27 11:49 | 47.72632 | 7.55631 | 35147 ft | 469 kts | 156° |
| 2026-04-27 11:50 | 47.66729 | 7.59784 | 35153 ft | 469 kts | 156° |
| 2026-04-27 11:50 | 47.60826 | 7.63934 | 35158 ft | 468 kts | 156° |
| 2026-04-27 11:51 | 47.54920 | 7.68079 | 35160 ft | 468 kts | 157° |
| 2026-04-27 11:52 | 47.46054 | 7.74286 | 35156 ft | 469 kts | 157° |
| 2026-04-27 11:52 | 47.40109 | 7.78435 | 35157 ft | 469 kts | 156° |
| 2026-04-27 11:53 | 47.34203 | 7.82548 | 35153 ft | 468 kts | 156° |
| 2026-04-27 11:53 | 47.28322 | 7.86635 | 35154 ft | 468 kts | 156° |
| 2026-04-27 11:54 | 47.22372 | 7.90755 | 35156 ft | 468 kts | 156° |
| 2026-04-27 11:54 | 47.16464 | 7.94837 | 35159 ft | 468 kts | 156° |
| 2026-04-27 11:55 | 47.10561 | 7.98904 | 35167 ft | 468 kts | 156° |
| 2026-04-27 11:55 | 47.04632 | 8.02981 | 35170 ft | 468 kts | 156° |
| 2026-04-27 11:56 | 46.98748 | 8.07017 | 35168 ft | 468 kts | 156° |
| 2026-04-27 11:56 | 46.92846 | 8.11058 | 35170 ft | 467 kts | 156° |
| 2026-04-27 11:57 | 46.86910 | 8.15111 | 35172 ft | 467 kts | 156° |
| 2026-04-27 11:57 | 46.80996 | 8.19139 | 35179 ft | 468 kts | 156° |
| 2026-04-27 11:58 | 46.75079 | 8.23157 | 35191 ft | 469 kts | 156° |
| 2026-04-27 11:58 | 46.69146 | 8.27175 | 35200 ft | 469 kts | 155° |
| 2026-04-27 11:59 | 46.63220 | 8.31182 | 35210 ft | 469 kts | 155° |
| 2026-04-27 11:59 | 46.57280 | 8.35191 | 35210 ft | 468 kts | 155° |
| 2026-04-27 12:00 | 46.51333 | 8.39191 | 35211 ft | 468 kts | 155° |
| 2026-04-27 12:00 | 46.45394 | 8.43178 | 35212 ft | 468 kts | 155° |
| 2026-04-27 12:01 | 46.39484 | 8.47139 | 35212 ft | 468 kts | 155° |
| 2026-04-27 12:01 | 46.33564 | 8.51095 | 35215 ft | 468 kts | 155° |
| 2026-04-27 12:02 | 46.27630 | 8.55049 | 35210 ft | 468 kts | 155° |
| 2026-04-27 12:02 | 46.21656 | 8.59025 | 35209 ft | 469 kts | 155° |
| 2026-04-27 12:03 | 46.15733 | 8.62975 | 35199 ft | 468 kts | 154° |
| 2026-04-27 12:03 | 46.10020 | 8.67559 | 35182 ft | 468 kts | 147° |
| 2026-04-27 12:04 | 46.04732 | 8.73096 | 35164 ft | 468 kts | 141° |
| 2026-04-27 12:04 | 45.99716 | 8.79020 | 35141 ft | 467 kts | 140° |
| 2026-04-27 12:05 | 45.94668 | 8.84965 | 35131 ft | 467 kts | 140° |
| 2026-04-27 12:05 | 45.89600 | 8.90908 | 35128 ft | 467 kts | 140° |
| 2026-04-27 12:06 | 45.84563 | 8.96794 | 35127 ft | 466 kts | 140° |
| 2026-04-27 12:06 | 45.79514 | 9.02680 | 35128 ft | 466 kts | 140° |
| 2026-04-27 12:07 | 45.74441 | 9.08576 | 35125 ft | 467 kts | 140° |
| 2026-04-27 12:07 | 45.69371 | 9.14457 | 35118 ft | 468 kts | 140° |
| 2026-04-27 12:08 | 45.64288 | 9.20339 | 35113 ft | 468 kts | 140° |
| 2026-04-27 12:08 | 45.59233 | 9.26176 | 35110 ft | 468 kts | 140° |
| 2026-04-27 12:09 | 45.54181 | 9.31994 | 35109 ft | 468 kts | 140° |
| 2026-04-27 12:09 | 45.49142 | 9.37784 | 35106 ft | 468 kts | 140° |
| 2026-04-27 12:10 | 45.44070 | 9.43596 | 35105 ft | 468 kts | 140° |
| 2026-04-27 12:10 | 45.38961 | 9.49437 | 35104 ft | 469 kts | 140° |
| 2026-04-27 12:11 | 45.33844 | 9.55275 | 35102 ft | 468 kts | 140° |
| 2026-04-27 12:11 | 45.28726 | 9.61099 | 35096 ft | 468 kts | 140° |
| 2026-04-27 12:12 | 45.23629 | 9.66885 | 35093 ft | 468 kts | 141° |
| 2026-04-27 12:12 | 45.18527 | 9.72662 | 35092 ft | 467 kts | 141° |
| 2026-04-27 12:13 | 45.13394 | 9.78461 | 35091 ft | 468 kts | 141° |
| 2026-04-27 12:13 | 45.08279 | 9.84227 | 35090 ft | 468 kts | 141° |
| 2026-04-27 12:14 | 45.03131 | 9.90019 | 35091 ft | 468 kts | 141° |
| 2026-04-27 12:14 | 44.98025 | 9.95747 | 35092 ft | 468 kts | 141° |
| 2026-04-27 12:15 | 44.92919 | 10.01461 | 35096 ft | 468 kts | 141° |
| 2026-04-27 12:15 | 44.87777 | 10.07201 | 35104 ft | 468 kts | 141° |
| 2026-04-27 12:16 | 44.82658 | 10.12903 | 35108 ft | 467 kts | 141° |
| 2026-04-27 12:16 | 44.77534 | 10.18598 | 35111 ft | 467 kts | 141° |
| 2026-04-27 12:17 | 44.72413 | 10.24278 | 35108 ft | 467 kts | 141° |
| 2026-04-27 12:17 | 44.67309 | 10.29925 | 35114 ft | 466 kts | 141° |
| 2026-04-27 12:17 | 44.64772 | 10.32727 | 34970 ft | 464 kts | 141° |
| 2026-04-27 12:18 | 44.62204 | 10.35559 | 34290 ft | 467 kts | 141° |
| 2026-04-27 12:18 | 44.59639 | 10.38387 | 33295 ft | 474 kts | 141° |
| 2026-04-27 12:18 | 44.57032 | 10.41256 | 32324 ft | 478 kts | 141° |
| 2026-04-27 12:18 | 44.54396 | 10.44153 | 31427 ft | 480 kts | 141° |
| 2026-04-27 12:19 | 44.51780 | 10.47024 | 30586 ft | 481 kts | 141° |
| 2026-04-27 12:19 | 44.49120 | 10.49941 | 29698 ft | 481 kts | 141° |
| 2026-04-27 12:19 | 44.46508 | 10.52802 | 28781 ft | 483 kts | 141° |
| 2026-04-27 12:19 | 44.43845 | 10.55717 | 27834 ft | 484 kts | 141° |
| 2026-04-27 12:20 | 44.41193 | 10.58615 | 27148 ft | 479 kts | 141° |
| 2026-04-27 12:20 | 44.38598 | 10.61449 | 26595 ft | 472 kts | 141° |
| 2026-04-27 12:20 | 44.35992 | 10.64290 | 25972 ft | 467 kts | 141° |
| 2026-04-27 12:20 | 44.33431 | 10.67080 | 25321 ft | 463 kts | 142° |
| 2026-04-27 12:21 | 44.30903 | 10.69831 | 24686 ft | 459 kts | 142° |
| 2026-04-27 12:21 | 44.28416 | 10.72536 | 24064 ft | 455 kts | 142° |
| 2026-04-27 12:21 | 44.25896 | 10.75272 | 23442 ft | 451 kts | 142° |
| 2026-04-27 12:21 | 44.23427 | 10.77951 | 22846 ft | 447 kts | 142° |
| 2026-04-27 12:22 | 44.20974 | 10.80610 | 22221 ft | 445 kts | 142° |
| 2026-04-27 12:22 | 44.18538 | 10.83246 | 21553 ft | 443 kts | 142° |
| 2026-04-27 12:22 | 44.16099 | 10.85883 | 20980 ft | 438 kts | 142° |
| 2026-04-27 12:22 | 44.13720 | 10.88453 | 20676 ft | 427 kts | 142° |
| 2026-04-27 12:23 | 44.11417 | 10.90938 | 20525 ft | 413 kts | 142° |
| 2026-04-27 12:23 | 44.09153 | 10.93379 | 20355 ft | 400 kts | 142° |
| 2026-04-27 12:23 | 44.06990 | 10.95707 | 20182 ft | 389 kts | 142° |
| 2026-04-27 12:23 | 44.04829 | 10.97815 | 19903 ft | 380 kts | 154° |
| 2026-04-27 12:24 | 44.02301 | 10.98736 | 19652 ft | 368 kts | 179° |
| 2026-04-27 12:24 | 43.99866 | 10.98116 | 19312 ft | 358 kts | 206° |
| 2026-04-27 12:24 | 43.97822 | 10.96168 | 18992 ft | 347 kts | 224° |
| 2026-04-27 12:24 | 43.96085 | 10.93850 | 18677 ft | 341 kts | 225° |
| 2026-04-27 12:25 | 43.94346 | 10.91653 | 18337 ft | 337 kts | 222° |
| 2026-04-27 12:25 | 43.92548 | 10.89578 | 17964 ft | 333 kts | 220° |
| 2026-04-27 12:25 | 43.90670 | 10.87689 | 17638 ft | 329 kts | 208° |
| 2026-04-27 12:25 | 43.88467 | 10.86947 | 17355 ft | 324 kts | 179° |
| 2026-04-27 12:26 | 43.86324 | 10.87743 | 17023 ft | 319 kts | 149° |
| 2026-04-27 12:26 | 43.84621 | 10.89738 | 16729 ft | 312 kts | 133° |
| 2026-04-27 12:26 | 43.83165 | 10.91924 | 16384 ft | 310 kts | 133° |
| 2026-04-27 12:26 | 43.81650 | 10.94097 | 15961 ft | 309 kts | 135° |
| 2026-04-27 12:27 | 43.80104 | 10.96159 | 15651 ft | 304 kts | 136° |
| 2026-04-27 12:27 | 43.78543 | 10.98153 | 15241 ft | 303 kts | 137° |
| 2026-04-27 12:27 | 43.76984 | 11.00108 | 14852 ft | 302 kts | 137° |
| 2026-04-27 12:27 | 43.75417 | 11.02062 | 14485 ft | 299 kts | 137° |
| 2026-04-27 12:28 | 43.73885 | 11.03970 | 14139 ft | 297 kts | 137° |
| 2026-04-27 12:28 | 43.72350 | 11.05878 | 13800 ft | 295 kts | 137° |
| 2026-04-27 12:28 | 43.70816 | 11.07785 | 13447 ft | 292 kts | 137° |
| 2026-04-27 12:28 | 43.69297 | 11.09672 | 13098 ft | 290 kts | 137° |
| 2026-04-27 12:29 | 43.67806 | 11.11524 | 12759 ft | 288 kts | 137° |
| 2026-04-27 12:29 | 43.66285 | 11.13337 | 12559 ft | 280 kts | 145° |
| 2026-04-27 12:29 | 43.64495 | 11.14254 | 12402 ft | 279 kts | 178° |
| 2026-04-27 12:29 | 43.62602 | 11.13709 | 11988 ft | 282 kts | 211° |
| 2026-04-27 12:30 | 43.61184 | 11.11872 | 11586 ft | 279 kts | 234° |
| 2026-04-27 12:30 | 43.60074 | 11.09659 | 11167 ft | 281 kts | 235° |
| 2026-04-27 12:30 | 43.58905 | 11.07470 | 10736 ft | 282 kts | 232° |
| 2026-04-27 12:30 | 43.57651 | 11.05341 | 10171 ft | 289 kts | 230° |
| 2026-04-27 12:31 | 43.56322 | 11.03211 | 9699 ft | 290 kts | 228° |
| 2026-04-27 12:31 | 43.54989 | 11.01137 | 9361 ft | 287 kts | 228° |
| 2026-04-27 12:31 | 43.53674 | 10.99115 | 9035 ft | 285 kts | 228° |
| 2026-04-27 12:31 | 43.52341 | 10.97075 | 8680 ft | 282 kts | 228° |
| 2026-04-27 12:32 | 43.51043 | 10.95090 | 8360 ft | 280 kts | 228° |
| 2026-04-27 12:32 | 43.49748 | 10.93103 | 8023 ft | 277 kts | 230° |
| 2026-04-27 12:32 | 43.48797 | 10.90817 | 7629 ft | 275 kts | 258° |
| 2026-04-27 12:32 | 43.48901 | 10.88282 | 7275 ft | 269 kts | 293° |
| 2026-04-27 12:33 | 43.50005 | 10.86254 | 6969 ft | 263 kts | 321° |
| 2026-04-27 12:33 | 43.51459 | 10.84768 | 6668 ft | 259 kts | 325° |
| 2026-04-27 12:33 | 43.52929 | 10.83319 | 6351 ft | 257 kts | 329° |
| 2026-04-27 12:33 | 43.54620 | 10.82578 | 5984 ft | 256 kts | 359° |
| 2026-04-27 12:34 | 43.56330 | 10.83079 | 5613 ft | 255 kts | 28° |
| 2026-04-27 12:34 | 43.57719 | 10.84575 | 5285 ft | 254 kts | 44° |
| 2026-04-27 12:34 | 43.58955 | 10.86356 | 4972 ft | 252 kts | 47° |
| 2026-04-27 12:34 | 43.60134 | 10.88147 | 4695 ft | 249 kts | 48° |
| 2026-04-27 12:35 | 43.61284 | 10.89929 | 4439 ft | 244 kts | 48° |
| 2026-04-27 12:35 | 43.62392 | 10.91654 | 4198 ft | 239 kts | 48° |
| 2026-04-27 12:35 | 43.63481 | 10.93350 | 3985 ft | 233 kts | 48° |
| 2026-04-27 12:35 | 43.64537 | 10.94995 | 3776 ft | 228 kts | 48° |
| 2026-04-27 12:36 | 43.65584 | 10.96623 | 3612 ft | 221 kts | 48° |
| 2026-04-27 12:36 | 43.66576 | 10.98164 | 3434 ft | 209 kts | 48° |
| 2026-04-27 12:36 | 43.67497 | 10.99593 | 3390 ft | 190 kts | 49° |
| 2026-04-27 12:36 | 43.68329 | 11.00884 | 3362 ft | 170 kts | 49° |
| 2026-04-27 12:37 | 43.69105 | 11.02087 | 3323 ft | 167 kts | 49° |
| 2026-04-27 12:37 | 43.69881 | 11.03290 | 3137 ft | 166 kts | 49° |
| 2026-04-27 12:37 | 43.70621 | 11.04435 | 2931 ft | 155 kts | 49° |
| 2026-04-27 12:37 | 43.71329 | 11.05532 | 2726 ft | 153 kts | 49° |
| 2026-04-27 12:38 | 43.72039 | 11.06632 | 2530 ft | 153 kts | 49° |
| 2026-04-27 12:38 | 43.72749 | 11.07733 | 2339 ft | 153 kts | 49° |
| 2026-04-27 12:38 | 43.73454 | 11.08824 | 2144 ft | 153 kts | 49° |
| 2026-04-27 12:38 | 43.74169 | 11.09930 | 1949 ft | 153 kts | 49° |
| 2026-04-27 12:39 | 43.74874 | 11.11021 | 1753 ft | 152 kts | 49° |
| 2026-04-27 12:39 | 43.75577 | 11.12110 | 1559 ft | 152 kts | 48° |
| 2026-04-27 12:39 | 43.76284 | 11.13204 | 1364 ft | 152 kts | 49° |
| 2026-04-27 12:39 | 43.76987 | 11.14292 | 1168 ft | 151 kts | 48° |
| 2026-04-27 12:40 | 43.77697 | 11.15391 | 971 ft | 150 kts | 47° |
| 2026-04-27 12:40 | 43.78391 | 11.16472 | 787 ft | 149 kts | 47° |
| 2026-04-27 12:40 | 43.79077 | 11.17553 | 568 ft | 148 kts | 48° |
| 2026-04-27 12:40 | 43.79768 | 11.18599 | 381 ft | 147 kts | 46° |
| 2026-04-27 12:41 | 43.80470 | 11.19659 | 199 ft | 149 kts | 47° |
| 2026-04-27 12:41 | 43.81059 | 11.20577 | 145 ft | 90 kts | 50° |
| 2026-04-27 12:41 | 43.81330 | 11.21021 | 149 ft | 48 kts | 44° |
| 2026-04-27 12:41 | 43.81470 | 11.21250 | 149 ft | 19 kts | 74° |
| 2026-04-27 12:42 | 43.81520 | 11.21320 | 150 ft | 5 kts | 314° |
| 2026-04-27 12:42 | 43.81515 | 11.21305 | 150 ft | 2 kts | 229° |
| 2026-04-27 12:42 | 43.81462 | 11.21218 | 150 ft | 17 kts | 230° |
| 2026-04-27 12:42 | 43.81378 | 11.21084 | 149 ft | 20 kts | 227° |
| 2026-04-27 12:43 | 43.81262 | 11.20911 | 148 ft | 30 kts | 229° |
| 2026-04-27 12:43 | 43.81107 | 11.20665 | 146 ft | 36 kts | 228° |
| 2026-04-27 12:43 | 43.80941 | 11.20407 | 143 ft | 34 kts | 227° |
| 2026-04-27 12:43 | 43.80786 | 11.20166 | 142 ft | 31 kts | 231° |
| 2026-04-27 12:44 | 43.80614 | 11.20012 | 142 ft | 29 kts | 194° |
| 2026-04-27 12:44 | 43.80444 | 11.19952 | 144 ft | 18 kts | 195° |
| 2026-04-27 12:44 | 43.80345 | 11.19997 | 145 ft | 15 kts | 118° |
| 2026-04-27 12:44 | 43.80342 | 11.20048 | 145 ft | 3 kts | 63° |
| 2026-04-27 12:45 | 43.80369 | 11.20065 | 144 ft | 5 kts | 12° |
| 2026-04-27 12:45 | 43.80387 | 11.20096 | 143 ft | 2 kts | 105° |
| 2026-04-27 12:45 | 43.80386 | 11.20103 | 143 ft | 0 kts | 102° |